createdAt,value
2022-08-25T00:01:41.497Z,5.32
2022-08-25T00:04:12.561Z,5.70
2022-08-25T00:06:42.637Z,9.55
2022-08-25T00:09:12.370Z,10.70
2022-08-25T00:11:40.710Z,7.05
2022-08-25T00:14:12.414Z,6.07
2022-08-25T00:16:39.760Z,7.43
2022-08-25T00:19:11.791Z,11.07
2022-08-25T00:21:41.346Z,7.40
2022-08-25T00:24:10.238Z,11.35
2022-08-25T00:26:40.779Z,6.68
2022-08-25T00:29:09.601Z,6.13
2022-08-25T00:31:37.815Z,11.50
2022-08-25T00:34:09.821Z,8.82
2022-08-25T00:36:37.694Z,6.30
2022-08-25T00:39:07.179Z,9.40
2022-08-25T00:41:35.528Z,5.90
2022-08-25T00:44:05.690Z,10.27
2022-08-25T00:46:37.261Z,9.20
2022-08-25T00:49:25.261Z,12.10
2022-08-25T00:52:04.290Z,7.05
2022-08-25T00:54:54.642Z,4.55
2022-08-25T00:57:34.906Z,8.32
2022-08-25T01:00:11.034Z,10.55
2022-08-25T01:02:39.224Z,13.35
2022-08-25T01:05:07.394Z,12.63
2022-08-25T01:07:34.957Z,8.10
2022-08-25T01:10:03.837Z,4.68
2022-08-25T01:12:31.191Z,7.20
2022-08-25T01:14:59.215Z,9.65
2022-08-25T01:17:28.541Z,6.60
2022-08-25T01:19:56.174Z,12.73
2022-08-25T01:22:27.011Z,5.38
2022-08-25T01:25:35.822Z,11.00
2022-08-25T01:28:12.529Z,5.82
2022-08-25T01:30:40.098Z,6.50
2022-08-25T01:33:08.945Z,8.18
2022-08-25T01:35:37.231Z,8.20
2022-08-25T01:38:06.617Z,10.27
2022-08-25T01:40:35.741Z,10.93
2022-08-25T01:43:12.393Z,9.25
2022-08-25T01:45:42.747Z,11.43
2022-08-25T01:48:11.610Z,7.40
2022-08-25T01:50:39.968Z,7.57
2022-08-25T01:53:17.972Z,7.80
2022-08-25T01:56:02.700Z,8.85
2022-08-25T01:58:36.226Z,11.10
2022-08-25T02:01:07.782Z,7.20
2022-08-25T02:03:41.207Z,6.05
2022-08-25T02:06:16.229Z,6.47
2022-08-25T02:08:44.536Z,13.23
2022-08-25T02:11:14.305Z,6.65
2022-08-25T02:13:43.019Z,9.10
2022-08-25T02:16:15.217Z,12.23
2022-08-25T02:18:42.620Z,8.55
2022-08-25T02:21:11.616Z,12.68
2022-08-25T02:23:39.068Z,13.02
2022-08-25T02:26:06.263Z,10.32
2022-08-25T02:28:33.455Z,8.43
2022-08-25T02:31:01.887Z,10.85
2022-08-25T02:33:29.403Z,11.02
2022-08-25T02:36:01.566Z,10.10
2022-08-25T02:38:30.011Z,8.68
2022-08-25T02:40:59.193Z,10.40
2022-08-25T02:43:28.406Z,8.13
2022-08-25T02:45:56.665Z,10.73
2022-08-25T02:48:23.990Z,17.02
2022-08-25T02:50:53.034Z,12.68
2022-08-25T02:53:22.339Z,21.13
2022-08-25T02:55:49.625Z,10.95
2022-08-25T02:58:16.737Z,12.52
2022-08-25T03:00:43.954Z,12.48
2022-08-25T03:03:11.257Z,13.45
2022-08-25T03:05:39.282Z,14.60
2022-08-25T03:08:07.774Z,14.18
2022-08-25T03:10:35.774Z,11.68
2022-08-25T03:13:03.140Z,10.05
2022-08-25T03:15:30.526Z,10.00
2022-08-25T03:17:59.926Z,14.82
2022-08-25T03:20:28.731Z,12.50
2022-08-25T03:22:55.964Z,13.25
2022-08-25T03:25:41.716Z,17.42
2022-08-25T03:30:36.403Z,27.67
2022-08-25T03:33:04.193Z,25.52
2022-08-25T03:35:31.470Z,23.02
2022-08-25T03:37:59.816Z,32.45
2022-08-25T03:40:27.511Z,32.22
2022-08-25T03:42:57.068Z,27.33
2022-08-25T03:45:27.478Z,32.55
2022-08-25T03:47:54.881Z,22.52
2022-08-25T03:50:23.519Z,24.65
2022-08-25T03:52:56.368Z,26.92
2022-08-25T03:55:25.448Z,27.95
2022-08-25T03:57:56.308Z,31.27
2022-08-25T04:00:24.310Z,34.53
2022-08-25T04:02:51.739Z,35.22
2022-08-25T04:05:20.594Z,28.45
2022-08-25T04:07:47.667Z,31.15
2022-08-25T04:10:14.998Z,69.63
2022-08-25T04:12:42.255Z,37.60
2022-08-25T04:15:11.017Z,26.15
2022-08-25T04:17:40.373Z,29.95
2022-08-25T04:20:10.061Z,36.40
2022-08-25T04:22:41.357Z,26.85
2022-08-25T04:25:12.746Z,33.25
2022-08-25T04:27:40.136Z,45.40
2022-08-25T04:30:07.935Z,33.88
2022-08-25T04:32:36.974Z,54.05
2022-08-25T04:35:06.210Z,33.88
2022-08-25T04:37:33.765Z,35.50
2022-08-25T04:40:03.531Z,30.52
2022-08-25T04:42:30.700Z,36.53
2022-08-25T04:44:58.176Z,33.85
2022-08-25T04:47:26.245Z,32.65
2022-08-25T04:49:55.436Z,33.30
2022-08-25T04:52:23.435Z,45.83
2022-08-25T04:54:50.772Z,61.47
2022-08-25T04:57:18.085Z,37.30
2022-08-25T04:59:45.353Z,40.45
2022-08-25T05:02:12.629Z,32.90
2022-08-25T05:04:39.951Z,34.22
2022-08-25T05:07:07.164Z,49.05
2022-08-25T05:09:34.718Z,43.58
2022-08-25T05:12:03.129Z,50.00
2022-08-25T05:14:31.156Z,38.85
2022-08-25T05:16:59.037Z,62.97
2022-08-25T05:19:27.087Z,49.17
2022-08-25T05:21:54.380Z,48.72
2022-08-25T05:24:22.489Z,43.95
2022-08-25T05:26:50.229Z,40.38
2022-08-25T05:29:17.775Z,30.40
2022-08-25T05:31:50.078Z,39.50
2022-08-25T05:34:19.161Z,36.35
2022-08-25T05:36:47.227Z,35.80
2022-08-25T05:39:14.911Z,34.75
2022-08-25T05:41:42.333Z,37.75
2022-08-25T05:44:09.931Z,34.17
2022-08-25T05:46:37.262Z,43.72
2022-08-25T05:49:04.499Z,41.25
2022-08-25T05:51:31.688Z,34.05
2022-08-25T05:53:58.973Z,34.25
2022-08-25T05:56:26.131Z,31.17
2022-08-25T05:58:54.249Z,31.75
2022-08-25T06:01:45.003Z,34.45
2022-08-25T06:04:13.883Z,36.38
2022-08-25T06:06:41.558Z,39.85
2022-08-25T06:09:09.833Z,34.63
2022-08-25T06:11:40.286Z,28.90
2022-08-25T06:14:09.778Z,33.97
2022-08-25T06:16:38.804Z,28.67
2022-08-25T06:19:07.523Z,30.45
2022-08-25T06:21:34.915Z,31.33
2022-08-25T06:24:02.491Z,32.97
2022-08-25T06:26:29.918Z,33.50
2022-08-25T06:28:57.099Z,28.38
2022-08-25T06:31:24.897Z,26.13
2022-08-25T06:33:52.472Z,24.13
2022-08-25T06:36:20.645Z,28.70
2022-08-25T06:38:48.591Z,32.28
2022-08-25T06:41:16.763Z,25.02
2022-08-25T06:43:48.916Z,25.10
2022-08-25T06:46:21.708Z,26.88
2022-08-25T06:48:49.841Z,33.88
2022-08-25T06:51:19.560Z,25.92
2022-08-25T06:53:49.273Z,28.27
2022-08-25T06:56:18.082Z,26.42
2022-08-25T06:58:45.607Z,26.73
2022-08-25T07:01:20.781Z,23.00
2022-08-25T07:03:48.869Z,23.77
2022-08-25T07:06:20.011Z,21.13
2022-08-25T07:08:48.282Z,21.17
2022-08-25T07:11:17.455Z,30.73
2022-08-25T07:13:45.609Z,21.48
2022-08-25T07:16:15.519Z,19.95
2022-08-25T07:18:44.216Z,20.83
2022-08-25T07:21:12.966Z,20.25
2022-08-25T07:23:43.329Z,16.05
2022-08-25T07:26:27.085Z,18.48
2022-08-25T07:29:00.385Z,22.38
2022-08-25T07:31:29.671Z,17.52
2022-08-25T07:34:16.571Z,17.95
2022-08-25T07:36:44.477Z,26.30
2022-08-25T07:39:12.439Z,17.77
2022-08-25T07:41:42.555Z,16.17
2022-08-25T07:44:12.209Z,16.88
2022-08-25T07:46:39.991Z,17.02
2022-08-25T07:49:16.441Z,12.52
2022-08-25T07:52:04.494Z,18.27
2022-08-25T07:54:35.085Z,14.40
2022-08-25T07:57:04.757Z,11.95
2022-08-25T07:59:39.282Z,9.30
2022-08-25T08:04:51.938Z,14.25
2022-08-25T08:07:41.896Z,11.40
2022-08-25T08:10:42.386Z,30.88
2022-08-25T08:13:00.893Z,12.75
2022-08-25T08:15:29.908Z,7.90
2022-08-25T08:17:59.087Z,9.95
2022-08-25T08:20:27.603Z,8.50
2022-08-25T08:22:56.174Z,14.73
2022-08-25T08:25:27.242Z,10.23
2022-08-25T08:27:56.087Z,14.30
2022-08-25T08:30:26.177Z,15.30
2022-08-25T08:33:09.619Z,7.32
2022-08-25T08:35:37.854Z,11.77
2022-08-25T08:38:13.516Z,15.65
2022-08-25T08:41:29.655Z,8.75
2022-08-25T08:44:21.006Z,8.45
2022-08-25T08:47:13.428Z,10.93
2022-08-25T08:50:23.160Z,7.45
2022-08-25T08:53:20.158Z,12.70
2022-08-25T08:55:52.967Z,7.65
2022-08-25T08:58:39.541Z,6.50
2022-08-25T09:01:12.846Z,12.48
2022-08-25T09:03:47.405Z,10.25
2022-08-25T09:06:31.600Z,11.43
2022-08-25T09:09:02.635Z,11.05
2022-08-25T09:14:53.811Z,8.10
2022-08-25T09:17:56.569Z,12.65
2022-08-25T09:20:49.064Z,11.38
2022-08-25T09:23:40.375Z,6.00
2022-08-25T09:26:32.973Z,9.43
2022-08-25T09:29:06.472Z,6.65
2022-08-25T09:31:45.087Z,13.95
2022-08-25T09:34:25.051Z,6.88
2022-08-25T09:36:53.603Z,10.05
2022-08-25T09:39:21.611Z,7.47
2022-08-25T09:41:57.206Z,7.78
2022-08-25T09:44:39.004Z,21.30
2022-08-25T09:47:15.603Z,6.00
2022-08-25T09:50:05.706Z,11.23
2022-08-25T09:52:41.288Z,11.60
2022-08-25T09:55:08.878Z,9.23
2022-08-25T09:57:43.502Z,4.38
2022-08-25T10:00:23.229Z,13.70
2022-08-25T10:03:11.556Z,5.63
2022-08-25T10:06:04.879Z,10.40
2022-08-25T10:09:01.155Z,10.05
2022-08-25T10:11:42.649Z,8.60
2022-08-25T10:14:23.057Z,11.63
2022-08-25T10:16:54.803Z,7.43
2022-08-25T10:19:30.344Z,7.70
2022-08-25T10:22:22.154Z,5.20
2022-08-25T10:24:49.642Z,8.82
2022-08-25T10:28:01.794Z,3.10
2022-08-25T10:30:37.928Z,5.88
2022-08-25T10:33:17.602Z,9.32
2022-08-25T10:35:58.631Z,6.00
2022-08-25T10:39:33.822Z,4.82
2022-08-25T10:42:04.213Z,5.88
2022-08-25T10:45:12.370Z,9.55
2022-08-25T10:47:55.387Z,5.53
2022-08-25T10:50:38.172Z,4.38
2022-08-25T10:53:27.187Z,5.25
2022-08-25T10:56:19.213Z,11.07
2022-08-25T10:59:11.495Z,4.45
2022-08-25T11:01:53.690Z,7.05
2022-08-25T11:04:26.415Z,6.57
2022-08-25T11:07:21.618Z,7.80
2022-08-25T11:09:52.562Z,4.95
2022-08-25T11:12:55.594Z,11.77
2022-08-25T11:16:20.330Z,3.63
2022-08-25T11:19:05.599Z,8.98
2022-08-25T11:22:03.605Z,4.18
2022-08-25T11:24:56.058Z,5.57
2022-08-25T11:27:44.719Z,6.80
2022-08-25T11:30:16.126Z,4.70
2022-08-25T11:32:51.278Z,12.00
2022-08-25T11:35:28.779Z,8.65
2022-08-25T11:38:21.181Z,5.97
2022-08-25T11:40:59.744Z,4.57
2022-08-25T11:43:45.720Z,9.48
2022-08-25T11:46:47.178Z,6.93
2022-08-25T11:49:37.871Z,3.70
2022-08-25T11:52:30.847Z,5.53
2022-08-25T11:55:23.029Z,6.40
2022-08-25T11:57:53.803Z,6.78
2022-08-25T12:00:39.408Z,6.97
2022-08-25T12:03:33.163Z,5.85
2022-08-25T12:06:19.285Z,3.13
2022-08-25T12:09:16.761Z,5.63
2022-08-25T12:11:50.060Z,6.47
2022-08-25T12:14:36.672Z,3.72
2022-08-25T12:17:22.182Z,4.07
2022-08-25T12:19:53.457Z,4.25
2022-08-25T12:22:22.302Z,5.85
2022-08-25T12:25:11.881Z,5.50
2022-08-25T12:28:09.359Z,4.47
2022-08-25T12:30:53.076Z,6.07
2022-08-25T12:33:54.020Z,3.03
2022-08-25T12:36:31.793Z,5.18
2022-08-25T12:39:24.286Z,4.13
2022-08-25T12:44:39.824Z,5.07
2022-08-25T12:47:28.695Z,5.97
2022-08-25T12:50:24.763Z,7.63
2022-08-25T12:52:54.142Z,4.78
2022-08-25T12:55:26.508Z,8.93
2022-08-25T12:57:59.017Z,8.00
2022-08-25T13:00:36.974Z,5.72
2022-08-25T13:03:24.999Z,4.25
2022-08-25T13:06:13.881Z,3.08
2022-08-25T13:09:30.133Z,4.68
2022-08-25T13:12:18.867Z,19.48
2022-08-25T13:14:54.080Z,13.38
2022-08-25T13:17:35.294Z,7.53
2022-08-25T13:20:16.152Z,7.05
2022-08-25T13:22:57.219Z,9.18
2022-08-25T13:25:32.653Z,5.82
2022-08-25T13:28:03.556Z,10.75
2022-08-25T13:30:37.488Z,9.00
2022-08-25T13:33:20.240Z,7.85
2022-08-25T13:36:15.572Z,3.63
2022-08-25T13:38:45.707Z,4.45
2022-08-25T13:41:20.659Z,10.75
2022-08-25T13:43:48.151Z,7.40
2022-08-25T13:46:21.019Z,4.90
2022-08-25T13:48:49.539Z,7.20
2022-08-25T13:51:31.220Z,7.43
2022-08-25T13:54:09.238Z,13.63
2022-08-25T13:56:41.395Z,8.20
2022-08-25T13:59:26.702Z,8.38
2022-08-25T14:01:56.021Z,5.72
2022-08-25T14:04:50.585Z,8.43
2022-08-25T14:07:22.728Z,8.20
2022-08-25T14:10:00.828Z,8.10
2022-08-25T14:12:44.686Z,16.38
2022-08-25T14:15:18.202Z,5.20
2022-08-25T14:18:01.064Z,7.88
2022-08-25T14:20:34.572Z,5.03
2022-08-25T14:23:09.893Z,7.20
2022-08-25T14:25:46.434Z,6.82
2022-08-25T14:28:20.058Z,8.65
2022-08-25T14:31:02.829Z,5.18
2022-08-25T14:33:40.480Z,9.93
2022-08-25T14:36:08.232Z,7.78
2022-08-25T14:38:38.852Z,7.15
2022-08-25T14:43:34.461Z,8.75
2022-08-25T14:46:10.197Z,5.63
2022-08-25T14:48:45.920Z,5.30
2022-08-25T14:51:15.356Z,6.40
2022-08-25T14:53:43.826Z,5.57
2022-08-25T14:56:11.821Z,6.90
2022-08-25T14:58:51.083Z,11.77
2022-08-25T15:01:29.004Z,6.30
2022-08-25T15:04:17.564Z,6.28
2022-08-25T15:06:45.570Z,7.10
2022-08-25T15:09:16.683Z,9.25
2022-08-25T15:11:47.387Z,15.38
2022-08-25T15:14:28.575Z,9.55
2022-08-25T15:17:02.054Z,12.00
2022-08-25T15:19:29.952Z,7.28
2022-08-25T15:21:58.177Z,9.90
2022-08-25T15:24:28.109Z,9.90
2022-08-25T15:26:59.263Z,7.50
2022-08-25T15:29:30.164Z,10.20
2022-08-25T15:32:00.386Z,12.52
2022-08-25T15:34:28.678Z,6.35
2022-08-25T15:37:00.651Z,7.25
2022-08-25T15:39:30.347Z,5.23
2022-08-25T15:42:06.290Z,11.35
2022-08-25T15:44:33.890Z,4.75
2022-08-25T15:47:03.403Z,5.82
2022-08-25T15:49:31.323Z,5.32
2022-08-25T15:51:59.295Z,4.97
2022-08-25T15:54:27.461Z,12.07
2022-08-25T15:56:58.126Z,5.05
2022-08-25T15:59:28.079Z,8.90
2022-08-25T16:01:55.542Z,7.32
2022-08-25T16:04:28.476Z,11.85
2022-08-25T16:06:56.399Z,15.57
2022-08-25T16:09:26.179Z,13.02
2022-08-25T16:11:56.853Z,17.23
2022-08-25T16:14:25.960Z,19.85
2022-08-25T16:16:53.311Z,12.38
2022-08-25T16:19:26.475Z,12.48
2022-08-25T16:21:53.711Z,22.05
2022-08-25T16:24:20.850Z,7.70
2022-08-25T16:26:48.814Z,5.22
2022-08-25T16:29:16.636Z,8.75
2022-08-25T16:31:45.152Z,8.55
2022-08-25T16:34:20.606Z,13.35
2022-08-25T16:36:48.105Z,8.55
2022-08-25T16:39:19.738Z,9.13
2022-08-25T16:41:48.373Z,6.22
2022-08-25T16:44:22.615Z,4.88
2022-08-25T16:46:54.593Z,12.65
2022-08-25T16:49:24.443Z,4.18
2022-08-25T16:51:57.357Z,10.35
2022-08-25T16:54:45.284Z,8.77
2022-08-25T16:57:13.437Z,7.43
2022-08-25T16:59:40.665Z,11.02
2022-08-25T17:02:08.885Z,9.05
2022-08-25T17:04:36.157Z,19.50
2022-08-25T17:07:05.011Z,7.47
2022-08-25T17:09:32.338Z,7.57
2022-08-25T17:11:59.688Z,6.82
2022-08-25T17:14:26.971Z,7.72
2022-08-25T17:16:55.321Z,10.90
2022-08-25T17:19:23.608Z,9.85
2022-08-25T17:21:51.551Z,8.27
2022-08-25T17:24:18.895Z,8.38
2022-08-25T17:26:50.146Z,16.63
2022-08-25T17:29:18.608Z,5.95
2022-08-25T17:31:48.368Z,8.48
2022-08-25T17:34:22.482Z,6.38
2022-08-25T17:36:50.607Z,9.60
2022-08-25T17:39:22.381Z,5.93
2022-08-25T17:41:51.153Z,10.55
2022-08-25T17:44:18.912Z,9.43
2022-08-25T17:46:48.126Z,8.18
2022-08-25T17:49:16.549Z,13.20
2022-08-25T17:51:43.905Z,7.82
2022-08-25T17:54:12.816Z,10.95
2022-08-25T17:56:40.291Z,7.18
2022-08-25T17:59:07.915Z,5.88
2022-08-25T18:01:40.747Z,12.65
2022-08-25T18:04:19.561Z,10.15
2022-08-25T18:06:48.689Z,8.82
2022-08-25T18:09:17.414Z,6.28
2022-08-25T18:11:45.316Z,12.38
2022-08-25T18:14:16.830Z,5.78
2022-08-25T18:16:44.365Z,6.50
2022-08-25T18:19:12.691Z,8.93
2022-08-25T18:21:41.774Z,6.47
2022-08-25T18:24:11.103Z,15.43
2022-08-25T18:26:38.519Z,4.65
2022-08-25T18:29:06.168Z,14.18
2022-08-25T18:31:33.359Z,12.48
2022-08-25T18:34:00.624Z,8.18
2022-08-25T18:36:27.848Z,5.40
2022-08-25T18:39:13.898Z,9.30
2022-08-25T18:41:42.825Z,9.95
2022-08-25T18:44:12.544Z,10.20
2022-08-25T18:46:43.260Z,5.85
2022-08-25T18:49:15.828Z,6.57
2022-08-25T18:51:45.039Z,12.88
2022-08-25T18:54:23.254Z,11.45
2022-08-25T18:56:54.893Z,6.35
2022-08-25T18:59:23.711Z,5.45
2022-08-25T19:01:52.785Z,8.25
2022-08-25T19:04:20.329Z,9.43
2022-08-25T19:06:51.864Z,10.20
2022-08-25T19:09:19.160Z,16.90
2022-08-25T19:11:47.687Z,7.50
2022-08-25T19:14:15.039Z,8.75
2022-08-25T19:16:45.563Z,8.98
2022-08-25T19:19:14.088Z,10.98
2022-08-25T19:21:42.202Z,8.88
2022-08-25T19:24:11.969Z,10.05
2022-08-25T19:26:39.776Z,9.85
2022-08-25T19:29:15.181Z,22.30
2022-08-25T19:31:44.912Z,14.75
2022-08-25T19:34:23.718Z,10.20
2022-08-25T19:36:58.881Z,11.73
2022-08-25T19:39:26.501Z,12.43
2022-08-25T19:41:53.979Z,5.28
2022-08-25T19:44:21.273Z,9.50
2022-08-25T19:46:48.914Z,11.82
2022-08-25T19:49:27.240Z,9.70
2022-08-25T19:52:02.279Z,13.05
2022-08-25T19:54:39.719Z,7.80
2022-08-25T19:57:13.669Z,8.20
2022-08-25T19:59:55.685Z,17.35
2022-08-25T20:02:25.959Z,18.17
2022-08-25T20:05:00.108Z,13.60
2022-08-25T20:07:30.335Z,5.75
2022-08-25T20:09:58.899Z,7.18
2022-08-25T20:12:27.357Z,11.40
2022-08-25T20:14:55.914Z,11.32
2022-08-25T20:17:26.190Z,12.13
2022-08-25T20:19:58.417Z,9.52
2022-08-25T20:22:28.019Z,12.75
2022-08-25T20:25:01.538Z,8.57
2022-08-25T20:27:34.722Z,15.90
2022-08-25T20:30:03.209Z,9.18
2022-08-25T20:32:32.864Z,8.10
2022-08-25T20:35:01.816Z,11.10
2022-08-25T20:37:29.295Z,11.93
2022-08-25T20:39:56.625Z,9.10
2022-08-25T20:42:24.405Z,13.30
2022-08-25T20:44:54.490Z,10.80
2022-08-25T20:47:22.912Z,14.18
2022-08-25T20:50:04.556Z,12.55
2022-08-25T20:52:34.953Z,9.07
2022-08-25T20:55:02.320Z,9.88
2022-08-25T20:57:30.221Z,10.52
2022-08-25T20:59:58.295Z,8.98
2022-08-25T21:02:27.374Z,13.70
2022-08-25T21:04:57.002Z,11.07
2022-08-25T21:07:25.808Z,11.63
2022-08-25T21:09:53.463Z,11.20
2022-08-25T21:12:20.651Z,11.07
2022-08-25T21:14:48.490Z,11.73
2022-08-25T21:17:19.118Z,26.15
2022-08-25T21:22:19.631Z,10.63
2022-08-25T21:24:47.781Z,14.38
2022-08-25T21:27:18.274Z,6.05
2022-08-25T21:29:54.964Z,13.75
2022-08-25T21:32:23.725Z,12.82
2022-08-25T21:34:56.289Z,8.80
2022-08-25T21:37:24.849Z,13.98
2022-08-25T21:39:53.044Z,11.88
2022-08-25T21:42:22.588Z,10.38
2022-08-25T21:44:50.554Z,10.07
2022-08-25T21:47:21.065Z,10.40
2022-08-25T21:49:49.424Z,13.93
2022-08-25T21:52:16.845Z,13.50
2022-08-25T21:54:45.346Z,7.80
2022-08-25T21:57:13.048Z,10.13
2022-08-25T21:59:41.317Z,13.43
2022-08-25T22:02:13.271Z,12.82
2022-08-25T22:04:42.891Z,14.18
2022-08-25T22:07:11.125Z,14.95
2022-08-25T22:09:40.220Z,10.00
2022-08-25T22:12:08.646Z,8.75
2022-08-25T22:14:37.876Z,15.07
2022-08-25T22:17:07.479Z,8.25
2022-08-25T22:19:36.371Z,14.25
2022-08-25T22:22:04.376Z,10.00
2022-08-25T22:24:31.567Z,11.27
2022-08-25T22:26:58.778Z,11.43
2022-08-25T22:29:28.107Z,11.65
2022-08-25T22:32:02.413Z,12.45
2022-08-25T22:34:33.573Z,12.90
2022-08-25T22:37:03.448Z,16.95
2022-08-25T22:39:31.659Z,13.85
2022-08-25T22:41:59.406Z,15.25
2022-08-25T22:44:26.966Z,18.58
2022-08-25T22:46:54.096Z,17.90
2022-08-25T22:49:22.149Z,11.02
2022-08-25T22:51:50.200Z,12.65
2022-08-25T22:54:18.415Z,14.20
2022-08-25T22:56:46.051Z,15.77
2022-08-25T22:59:14.295Z,13.90
2022-08-25T23:01:44.471Z,8.48
2022-08-25T23:04:12.731Z,19.05
2022-08-25T23:06:40.813Z,18.85
2022-08-25T23:09:11.033Z,12.93
2022-08-25T23:11:39.577Z,12.00
2022-08-25T23:14:10.434Z,12.98
2022-08-25T23:16:43.133Z,20.33
2022-08-25T23:19:13.940Z,11.95
2022-08-25T23:22:00.719Z,16.52
2022-08-25T23:24:30.519Z,9.23
2022-08-25T23:27:03.731Z,16.27
2022-08-25T23:29:32.290Z,9.60
2022-08-25T23:31:59.742Z,13.00
2022-08-25T23:34:28.423Z,17.00
2022-08-25T23:36:56.778Z,15.05
2022-08-25T23:39:24.592Z,12.68
2022-08-25T23:41:52.742Z,10.77
2022-08-25T23:44:22.226Z,16.67
2022-08-25T23:46:53.524Z,9.63
2022-08-25T23:49:23.575Z,17.08
2022-08-25T23:51:52.780Z,14.57
2022-08-25T23:54:21.377Z,10.77
2022-08-25T23:56:52.327Z,12.85
2022-08-25T23:59:24.510Z,20.13
